Aviation Digital Data Service (ADDS)

Output produced by METARs form (2046 UTC 28 February 2015)
found at http://www.aviationweather.gov/adds/metars/
 
METAR text: KSBP 281956Z 36006KT 6SM -RA BR FEW027 BKN035 OVC044 11/09 A2984 RMK AO2 RAB03 SLP105 P0019 T01110094
Conditions at: KSBP (SAN LUIS OBISPO , CA, US) observed 1956 UTC 28 February 2015
Temperature: 11.1°C (52°F)
Dewpoint: 9.4°C (49°F) [RH = 89%]
Pressure (altimeter): 29.84 inches Hg (1010.6 mb)
[Sea-level pressure: 1010.5 mb]
Winds: from the N (360 degrees) at 7 MPH (6 knots; 3.1 m/s)
Visibility: 6 miles (10 km)
Ceiling: 3500 feet AGL
Clouds: few clouds at 2700 feet AGL
broken clouds at 3500 feet AGL
overcast cloud deck at 4400 feet AGL
Weather: -RA BR  (light rain, mist)

METAR text: KSBP 281906Z 36006KT 6SM -RA FEW027 BKN035 OVC044 12/08 A2985 RMK AO2 RAB03 P0006 T01170083
Conditions at: KSBP (SAN LUIS OBISPO , CA, US) observed 1906 UTC 28 February 2015
Temperature: 11.7°C (53°F)
Dewpoint: 8.3°C (47°F) [RH = 80%]
Pressure (altimeter): 29.85 inches Hg (1010.9 mb)
Winds: from the N (360 degrees) at 7 MPH (6 knots; 3.1 m/s)
Visibility: 6 miles (10 km)
Ceiling: 3500 feet AGL
Clouds: few clouds at 2700 feet AGL
broken clouds at 3500 feet AGL
overcast cloud deck at 4400 feet AGL
Weather: -RA  (light rain)

METAR text: KSBP 281856Z 02007KT 10SM SCT024 BKN029 OVC037 13/08 A2985 RMK AO2 RAB30E42 SLP108 P0001 T01280083
Conditions at: KSBP (SAN LUIS OBISPO , CA, US) observed 1856 UTC 28 February 2015
Temperature: 12.8°C (55°F)
Dewpoint: 8.3°C (47°F) [RH = 74%]
Pressure (altimeter): 29.85 inches Hg (1010.9 mb)
[Sea-level pressure: 1010.8 mb]
Winds: from the NNE (20 degrees) at 8 MPH (7 knots; 3.6 m/s)
Visibility: 10 or more miles (16+ km)
Ceiling: 2900 feet AGL
Clouds: scattered clouds at 2400 feet AGL
broken clouds at 2900 feet AGL
overcast cloud deck at 3700 feet AGL
Weather: no significant weather observed at this time

METAR text: KSBP 281833Z 00000KT 7SM -RA BKN024 OVC048 13/08 A2985 RMK AO2 RAB30 P0001 T01330083
Conditions at: KSBP (SAN LUIS OBISPO , CA, US) observed 1833 UTC 28 February 2015
Temperature: 13.3°C (56°F)
Dewpoint: 8.3°C (47°F) [RH = 72%]
Pressure (altimeter): 29.85 inches Hg (1010.9 mb)
Winds: calm
Visibility: 7 miles (11 km)
Ceiling: 2400 feet AGL
Clouds: broken clouds at 2400 feet AGL
overcast cloud deck at 4800 feet AGL
Weather: -RA  (light rain)

METAR text: KSBP 281756Z COR 00000KT 10SM SCT018 BKN023 BKN110 13/08 A2985 RMK AO2 SLP108 60000 T01280083 10128 20061 51008
Conditions at: KSBP (SAN LUIS OBISPO , CA, US) observed 1756 UTC 28 February 2015
Temperature: 12.8°C (55°F)
Dewpoint: 8.3°C (47°F) [RH = 74%]
Pressure (altimeter): 29.85 inches Hg (1010.9 mb)
[Sea-level pressure: 1010.8 mb]
Winds: calm
Visibility: 10 or more miles (16+ km)
Ceiling: 2300 feet AGL
Clouds: scattered clouds at 1800 feet AGL
broken clouds at 2300 feet AGL
broken clouds at 11000 feet AGL
Weather: no significant weather observed at this time

METAR text: KSBP 281754Z 17003KT 10SM SCT018 BKN049 BKN110 13/08 A2985 RMK AO2
Conditions at: KSBP (SAN LUIS OBISPO , CA, US) observed 1754 UTC 28 February 2015
Temperature: 13.0°C (55°F)
Dewpoint: 8.0°C (46°F) [RH = 72%]
Pressure (altimeter): 29.85 inches Hg (1010.9 mb)
Winds: from the S (170 degrees) at 3 MPH (3 knots; 1.6 m/s)
Visibility: 10 or more miles (16+ km)
Ceiling: 4900 feet AGL
Clouds: scattered clouds at 1800 feet AGL
broken clouds at 4900 feet AGL
broken clouds at 11000 feet AGL
Weather: no significant weather observed at this time

METAR text: KSBP 281732Z 00000KT 10SM SCT016 BKN023 OVC085 12/08 A2985 RMK AO2 T01220083
Conditions at: KSBP (SAN LUIS OBISPO , CA, US) observed 1732 UTC 28 February 2015
Temperature: 12.2°C (54°F)
Dewpoint: 8.3°C (47°F) [RH = 77%]
Pressure (altimeter): 29.85 inches Hg (1010.9 mb)
Winds: calm
Visibility: 10 or more miles (16+ km)
Ceiling: 2300 feet AGL
Clouds: scattered clouds at 1600 feet AGL
broken clouds at 2300 feet AGL
overcast cloud deck at 8500 feet AGL
Weather: no significant weather observed at this time

METAR text: KSBP 281656Z VRB03KT 10SM SCT030 BKN070 BKN090 11/08 A2984 RMK AO2 RAB39E50 SLP106 P0000 T01110083
Conditions at: KSBP (SAN LUIS OBISPO , CA, US) observed 1656 UTC 28 February 2015
Temperature: 11.1°C (52°F)
Dewpoint: 8.3°C (47°F) [RH = 83%]
Pressure (altimeter): 29.84 inches Hg (1010.6 mb)
[Sea-level pressure: 1010.6 mb]
Winds: variable direction winds at 3 MPH (3 knots; 1.6 m/s)
Visibility: 10 or more miles (16+ km)
Ceiling: 7000 feet AGL
Clouds: scattered clouds at 3000 feet AGL
broken clouds at 7000 feet AGL
broken clouds at 9000 feet AGL
Weather: no significant weather observed at this time

METAR text: KSBP 281556Z COR VRB004KT 10SM SCT030 BKN100 09/07 A2983 RMK AO2 SLP100 T00940067
Conditions at: KSBP (SAN LUIS OBISPO , CA, US) observed 1556 UTC 28 February 2015
Temperature: 9.4°C (49°F)
Dewpoint: 6.7°C (44°F) [RH = 83%]
Pressure (altimeter): 29.83 inches Hg (1010.2 mb)
[Sea-level pressure: 1010.0 mb]
Winds: variable direction winds at 5 MPH (4 knots; 2.1 m/s)
Visibility: 10 or more miles (16+ km)
Ceiling: 10000 feet AGL
Clouds: scattered clouds at 3000 feet AGL
broken clouds at 10000 feet AGL
Weather: no significant weather observed at this time

METAR text: KSBP 281456Z 12005KT 10SM FEW017 SCT023 BKN065 08/06 A2981 RMK AO2 SLP096 T00780061 53006
Conditions at: KSBP (SAN LUIS OBISPO , CA, US) observed 1456 UTC 28 February 2015
Temperature: 7.8°C (46°F)
Dewpoint: 6.1°C (43°F) [RH = 89%]
Pressure (altimeter): 29.81 inches Hg (1009.6 mb)
[Sea-level pressure: 1009.6 mb]
Winds: from the ESE (120 degrees) at 6 MPH (5 knots; 2.6 m/s)
Visibility: 10 or more miles (16+ km)
Ceiling: 6500 feet AGL
Clouds: few clouds at 1700 feet AGL
scattered clouds at 2300 feet AGL
broken clouds at 6500 feet AGL
Weather: no significant weather observed at this time

METAR text: KSBP 281445Z 13004KT 10SM FEW017 SCT023 OVC065 08/06 A2981 RMK AO2 T00780061
Conditions at: KSBP (SAN LUIS OBISPO , CA, US) observed 1445 UTC 28 February 2015
Temperature: 7.8°C (46°F)
Dewpoint: 6.1°C (43°F) [RH = 89%]
Pressure (altimeter): 29.81 inches Hg (1009.6 mb)
Winds: from the SE (130 degrees) at 5 MPH (4 knots; 2.1 m/s)
Visibility: 10 or more miles (16+ km)
Ceiling: 6500 feet AGL
Clouds: few clouds at 1700 feet AGL
scattered clouds at 2300 feet AGL
overcast cloud deck at 6500 feet AGL
Weather: no significant weather observed at this time

METAR text: KSBP 281356Z VRB04KT 10SM BKN021 07/06 A2981 RMK AO2 SLP094 T00720061
Conditions at: KSBP (SAN LUIS OBISPO , CA, US) observed 1356 UTC 28 February 2015
Temperature: 7.2°C (45°F)
Dewpoint: 6.1°C (43°F) [RH = 93%]
Pressure (altimeter): 29.81 inches Hg (1009.6 mb)
[Sea-level pressure: 1009.4 mb]
Winds: variable direction winds at 5 MPH (4 knots; 2.1 m/s)
Visibility: 10 or more miles (16+ km)
Ceiling: 2100 feet AGL
Clouds: broken clouds at 2100 feet AGL
Weather: no significant weather observed at this time

METAR text: KSBP 281336Z VRB04KT 10SM BKN021 07/06 A2980 RMK AO2 T00720056
Conditions at: KSBP (SAN LUIS OBISPO , CA, US) observed 1336 UTC 28 February 2015
Temperature: 7.2°C (45°F)
Dewpoint: 5.6°C (42°F) [RH = 90%]
Pressure (altimeter): 29.80 inches Hg (1009.2 mb)
Winds: variable direction winds at 5 MPH (4 knots; 2.1 m/s)
Visibility: 10 or more miles (16+ km)
Ceiling: 2100 feet AGL
Clouds: broken clouds at 2100 feet AGL
Weather: no significant weather observed at this time

METAR text: KSBP 281314Z AUTO 12004KT 10SM SCT025 07/06 A2980 RMK AO2 T00670056
Conditions at: KSBP (SAN LUIS OBISPO , CA, US) observed 1314 UTC 28 February 2015
Temperature: 6.7°C (44°F)
Dewpoint: 5.6°C (42°F) [RH = 93%]
Pressure (altimeter): 29.80 inches Hg (1009.2 mb)
Winds: from the ESE (120 degrees) at 5 MPH (4 knots; 2.1 m/s)
Visibility: 10 or more miles (16+ km)
Ceiling: at least 12,000 feet AGL
Clouds: scattered clouds at 2500 feet AGL
Weather: automated observation with no human augmentation;
there may or may not be significant weather present at this time

METAR text: KSBP 281256Z AUTO 10004KT 10SM BKN024 07/06 A2980 RMK AO2 SLP090 T00720061
Conditions at: KSBP (SAN LUIS OBISPO , CA, US) observed 1256 UTC 28 February 2015
Temperature: 7.2°C (45°F)
Dewpoint: 6.1°C (43°F) [RH = 93%]
Pressure (altimeter): 29.80 inches Hg (1009.2 mb)
[Sea-level pressure: 1009.0 mb]
Winds: from the E (100 degrees) at 5 MPH (4 knots; 2.1 m/s)
Visibility: 10 or more miles (16+ km)
Ceiling: 2400 feet AGL
Clouds: broken clouds at 2400 feet AGL
Weather: automated observation with no human augmentation;
there may or may not be significant weather present at this time